createdAt,value
2023-05-18T00:02:17.722Z,11.89
2023-05-18T00:04:46.999Z,11.91
2023-05-18T00:07:16.038Z,11.84
2023-05-18T00:09:47.052Z,11.90
2023-05-18T00:12:15.736Z,11.98
2023-05-18T00:14:44.403Z,12.09
2023-05-18T00:17:15.490Z,12.09
2023-05-18T00:19:47.107Z,12.05
2023-05-18T00:22:19.672Z,12.11
2023-05-18T00:24:50.611Z,12.23
2023-05-18T00:27:20.214Z,12.29
2023-05-18T00:29:49.164Z,12.27
2023-05-18T00:32:17.581Z,12.23
2023-05-18T00:34:46.068Z,12.25
2023-05-18T00:37:16.292Z,12.29
2023-05-18T00:39:46.728Z,12.35
2023-05-18T00:42:15.190Z,12.34
2023-05-18T00:44:44.193Z,12.21
2023-05-18T00:47:13.486Z,12.24
2023-05-18T00:49:42.537Z,12.28
2023-05-18T00:52:11.882Z,12.38
2023-05-18T00:54:40.570Z,12.42
2023-05-18T00:57:09.450Z,12.36
2023-05-18T00:59:41.527Z,12.45
2023-05-18T01:02:12.614Z,12.55
2023-05-18T01:04:43.711Z,12.66
2023-05-18T01:07:17.710Z,12.72
2023-05-18T01:09:46.493Z,12.68
2023-05-18T01:12:33.517Z,12.78
2023-05-18T01:15:26.671Z,12.94
2023-05-18T01:18:05.906Z,13.01
2023-05-18T01:20:50.269Z,13.11
2023-05-18T01:23:55.558Z,13.07
2023-05-18T01:26:38.173Z,13.19
2023-05-18T01:29:10.586Z,13.29
2023-05-18T01:31:41.733Z,13.37
2023-05-18T01:34:10.816Z,13.41
2023-05-18T01:36:39.416Z,13.34
2023-05-18T01:39:09.832Z,13.42
2023-05-18T01:41:46.742Z,13.53
2023-05-18T01:44:29.665Z,13.65
2023-05-18T01:47:27.950Z,13.69
2023-05-18T01:50:15.014Z,13.62
2023-05-18T01:52:45.350Z,13.65
2023-05-18T01:55:18.840Z,13.65
2023-05-18T01:58:17.537Z,13.62
2023-05-18T02:00:47.458Z,13.48
2023-05-18T02:03:17.999Z,13.46
2023-05-18T02:05:46.648Z,13.52
2023-05-18T02:08:40.428Z,13.49
2023-05-18T02:11:13.301Z,13.37
2023-05-18T02:13:43.110Z,13.38
2023-05-18T02:16:12.433Z,13.49
2023-05-18T02:18:43.575Z,13.49
2023-05-18T02:21:14.092Z,13.44
2023-05-18T02:23:45.446Z,13.43
2023-05-18T02:26:17.330Z,13.52
2023-05-18T02:28:54.368Z,13.53
2023-05-18T02:31:22.908Z,13.45
2023-05-18T02:34:23.851Z,13.44
2023-05-18T02:36:55.342Z,13.53
2023-05-18T02:39:23.721Z,13.52
2023-05-18T02:41:52.410Z,13.37
2023-05-18T02:44:24.769Z,13.35
2023-05-18T02:46:54.895Z,13.36
2023-05-18T02:49:29.213Z,13.42
2023-05-18T02:51:57.699Z,13.40
2023-05-18T02:54:26.578Z,13.35
2023-05-18T02:56:58.238Z,13.40
2023-05-18T02:59:46.582Z,13.55
2023-05-18T03:02:18.610Z,13.60
2023-05-18T03:04:49.350Z,13.54
2023-05-18T03:07:18.989Z,13.61
2023-05-18T03:09:47.715Z,13.72
2023-05-18T03:12:16.565Z,13.73
2023-05-18T03:14:45.350Z,13.70
2023-05-18T03:17:14.288Z,13.68
2023-05-18T03:19:43.042Z,13.72
2023-05-18T03:22:12.116Z,13.81
2023-05-18T03:24:41.459Z,13.79
2023-05-18T03:27:14.103Z,13.72
2023-05-18T03:29:43.709Z,13.71
2023-05-18T03:32:37.538Z,13.81
2023-05-18T03:35:07.187Z,13.89
2023-05-18T03:37:35.876Z,13.92
2023-05-18T03:40:11.734Z,13.92
2023-05-18T03:42:44.608Z,14.05
2023-05-18T03:45:14.222Z,14.20
2023-05-18T03:47:43.985Z,14.24
2023-05-18T03:50:13.180Z,14.23
2023-05-18T03:52:45.081Z,14.22
2023-05-18T03:55:14.227Z,14.37
2023-05-18T03:57:42.869Z,14.42
2023-05-18T04:00:13.818Z,14.45
2023-05-18T04:02:47.981Z,14.40
2023-05-18T04:05:17.826Z,14.52
2023-05-18T04:08:25.931Z,14.67
2023-05-18T04:11:19.705Z,14.74
2023-05-18T04:13:48.388Z,14.74
2023-05-18T04:16:19.392Z,14.76
2023-05-18T04:18:48.031Z,14.91
2023-05-18T04:21:17.829Z,15.06
2023-05-18T04:23:48.763Z,15.14
2023-05-18T04:26:20.457Z,15.30
2023-05-18T04:28:50.640Z,15.42
2023-05-18T04:31:19.454Z,15.67
2023-05-18T04:33:48.209Z,16.01
2023-05-18T04:36:21.573Z,16.28
2023-05-18T04:38:53.773Z,16.58
2023-05-18T04:41:26.559Z,16.84
2023-05-18T04:43:56.975Z,17.00
2023-05-18T04:46:31.298Z,17.18
2023-05-18T04:49:01.625Z,17.38
2023-05-18T04:51:35.226Z,17.67
2023-05-18T04:54:05.444Z,17.90
2023-05-18T04:56:34.796Z,18.06
2023-05-18T04:59:03.213Z,18.16
2023-05-18T05:01:32.745Z,18.30
2023-05-18T05:04:01.532Z,18.40
2023-05-18T05:06:30.397Z,18.63
2023-05-18T05:13:58.099Z,18.89
2023-05-18T05:16:28.544Z,18.96
2023-05-18T05:18:57.737Z,19.04
2023-05-18T05:21:53.940Z,19.22
2023-05-18T05:24:23.852Z,19.51
2023-05-18T05:26:52.700Z,19.85
2023-05-18T05:29:21.941Z,20.14
2023-05-18T05:32:20.523Z,20.47
2023-05-18T05:34:51.666Z,20.63
2023-05-18T05:37:48.443Z,20.68
2023-05-18T05:41:10.353Z,20.45
2023-05-18T05:44:34.112Z,20.31
2023-05-18T05:47:03.763Z,20.29
2023-05-18T05:49:35.386Z,20.31
2023-05-18T05:52:06.025Z,20.32
2023-05-18T05:54:35.011Z,20.32
2023-05-18T05:57:35.478Z,20.38
2023-05-18T06:00:05.248Z,20.42
2023-05-18T06:02:49.539Z,20.40
2023-05-18T06:05:29.132Z,20.23
2023-05-18T06:07:58.428Z,20.16
2023-05-18T06:10:26.913Z,20.04
2023-05-18T06:13:00.019Z,20.01
2023-05-18T06:15:36.985Z,19.99
2023-05-18T06:18:06.236Z,20.01
2023-05-18T06:20:39.978Z,20.05
2023-05-18T06:23:08.919Z,20.21
2023-05-18T06:25:53.638Z,20.39
2023-05-18T06:28:40.547Z,20.49
2023-05-18T06:31:58.230Z,20.42
2023-05-18T06:34:57.270Z,20.44
2023-05-18T06:37:26.073Z,20.57
2023-05-18T06:39:56.380Z,20.58
2023-05-18T06:42:26.403Z,20.74
2023-05-18T06:45:32.593Z,20.85
2023-05-18T06:48:13.445Z,21.05
2023-05-18T06:50:43.143Z,21.24
2023-05-18T06:53:13.367Z,21.28
2023-05-18T06:55:42.354Z,21.30
2023-05-18T06:58:16.059Z,21.34
2023-05-18T07:00:44.954Z,21.38
2023-05-18T07:03:13.934Z,21.38
2023-05-18T07:05:45.846Z,21.38
2023-05-18T07:08:14.534Z,21.43
2023-05-18T07:10:47.568Z,21.51
2023-05-18T07:13:41.554Z,21.60
2023-05-18T07:16:10.910Z,21.60
2023-05-18T07:18:40.175Z,21.65
2023-05-18T07:21:10.984Z,21.78
2023-05-18T07:23:43.499Z,21.81
2023-05-18T07:26:12.854Z,21.94
2023-05-18T07:28:45.128Z,22.08
2023-05-18T07:31:41.592Z,22.21
2023-05-18T07:34:11.681Z,22.34
2023-05-18T07:36:40.163Z,22.39
2023-05-18T07:39:09.572Z,22.49
2023-05-18T07:41:38.264Z,22.42
2023-05-18T07:45:00.179Z,22.52
2023-05-18T07:47:28.618Z,22.46
2023-05-18T07:50:26.997Z,22.32
2023-05-18T07:52:57.680Z,22.19
2023-05-18T07:55:28.236Z,22.19
2023-05-18T07:57:57.760Z,22.24
2023-05-18T08:00:26.494Z,22.30
2023-05-18T08:02:55.221Z,22.40
2023-05-18T08:05:29.253Z,22.47
2023-05-18T08:07:58.289Z,22.58
2023-05-18T08:10:27.492Z,22.76
2023-05-18T08:13:21.558Z,22.84
2023-05-18T08:16:15.807Z,22.89
2023-05-18T08:19:10.112Z,22.77
2023-05-18T08:22:04.116Z,22.99
2023-05-18T08:24:58.393Z,23.03
2023-05-18T08:27:30.250Z,23.08
2023-05-18T08:30:24.961Z,23.11
2023-05-18T08:33:19.677Z,23.06
2023-05-18T08:35:49.346Z,23.04
2023-05-18T08:38:18.240Z,23.05
2023-05-18T08:41:00.021Z,23.03
2023-05-18T08:44:16.159Z,23.05
2023-05-18T08:46:51.383Z,22.92
2023-05-18T08:50:14.311Z,22.91
2023-05-18T08:55:37.971Z,22.90
2023-05-18T08:58:18.998Z,22.99
2023-05-18T09:00:47.691Z,23.09
2023-05-18T09:03:16.832Z,23.11
2023-05-18T09:05:53.754Z,23.16
2023-05-18T09:13:05.887Z,23.29
2023-05-18T09:16:25.375Z,23.29
2023-05-18T09:18:56.214Z,23.38
2023-05-18T09:21:26.928Z,23.47
2023-05-18T09:24:24.912Z,23.50
2023-05-18T09:26:55.026Z,23.57
2023-05-18T09:29:54.617Z,23.50
2023-05-18T09:32:28.993Z,23.49
2023-05-18T09:35:07.973Z,23.61
2023-05-18T09:38:29.903Z,23.72
2023-05-18T09:41:01.348Z,23.78
2023-05-18T09:43:56.574Z,23.76
2023-05-18T09:46:57.529Z,23.70
2023-05-18T09:49:26.073Z,23.64
2023-05-18T09:52:22.212Z,23.64
2023-05-18T09:55:22.443Z,23.67
2023-05-18T09:57:51.429Z,23.56
2023-05-18T10:00:24.214Z,23.59
2023-05-18T10:02:57.532Z,23.62
2023-05-18T10:05:55.470Z,23.65
2023-05-18T10:08:25.586Z,23.75
2023-05-18T10:10:58.686Z,23.84
2023-05-18T10:13:29.604Z,23.84
2023-05-18T10:16:02.397Z,23.80
2023-05-18T10:18:57.628Z,23.78
2023-05-18T10:21:30.503Z,23.67
2023-05-18T10:24:05.420Z,23.57
2023-05-18T10:26:40.346Z,23.47
2023-05-18T10:29:11.390Z,23.45
2023-05-18T10:31:42.119Z,23.51
2023-05-18T10:34:12.440Z,23.48
2023-05-18T10:36:43.289Z,23.41
2023-05-18T10:39:20.466Z,23.46
2023-05-18T10:41:51.811Z,23.53
2023-05-18T10:44:24.803Z,23.47
2023-05-18T10:46:54.682Z,23.51
2023-05-18T10:49:27.699Z,23.57
2023-05-18T10:52:21.776Z,23.49
2023-05-18T10:54:50.870Z,23.39
2023-05-18T10:57:22.420Z,23.40
2023-05-18T10:59:50.906Z,23.36
2023-05-18T11:02:28.155Z,23.28
2023-05-18T11:04:57.841Z,23.25
2023-05-18T11:07:30.535Z,23.23
2023-05-18T11:10:03.969Z,23.20
2023-05-18T11:12:38.616Z,23.20
2023-05-18T11:16:01.149Z,23.23
2023-05-18T11:18:38.765Z,23.28
2023-05-18T11:21:36.621Z,23.14
2023-05-18T11:24:29.992Z,23.15
2023-05-18T11:27:31.774Z,23.18
2023-05-18T11:30:32.047Z,23.15
2023-05-18T11:33:14.330Z,23.08
2023-05-18T11:36:09.218Z,23.00
2023-05-18T11:38:53.406Z,22.98
2023-05-18T11:42:01.409Z,23.01
2023-05-18T11:44:30.436Z,23.07
2023-05-18T11:47:06.297Z,23.07
2023-05-18T11:50:24.750Z,23.12
2023-05-18T11:53:27.579Z,23.19
2023-05-18T11:56:13.925Z,23.23
2023-05-18T11:58:45.584Z,23.13
2023-05-18T12:01:16.001Z,23.13
2023-05-18T12:03:48.461Z,23.11
2023-05-18T12:06:18.382Z,23.06
2023-05-18T12:08:47.072Z,23.01
2023-05-18T12:11:16.883Z,23.00
2023-05-18T12:13:47.421Z,22.99
2023-05-18T12:16:16.151Z,22.97
2023-05-18T12:18:54.122Z,22.94
2023-05-18T12:21:23.092Z,22.92
2023-05-18T12:23:59.654Z,22.83
2023-05-18T12:26:30.087Z,22.76
2023-05-18T12:29:02.674Z,22.74
2023-05-18T12:31:57.658Z,22.82
2023-05-18T12:34:31.059Z,22.88
2023-05-18T12:36:59.847Z,22.88
2023-05-18T12:39:28.873Z,22.90
2023-05-18T12:42:16.566Z,22.87
2023-05-18T12:45:12.188Z,22.86
2023-05-18T12:47:43.003Z,22.75
2023-05-18T12:50:11.833Z,22.72
2023-05-18T12:52:40.796Z,22.69
2023-05-18T12:55:10.920Z,22.61
2023-05-18T12:57:42.275Z,22.63
2023-05-18T13:00:13.233Z,22.67
2023-05-18T13:02:41.640Z,22.69
2023-05-18T13:05:12.563Z,22.67
2023-05-18T13:07:47.450Z,22.63
